• Join FlightAware (Why Join?)
  • Login
  • US Flag 
05:03PM EDT


 

Airport Tracker/Info


-or-


 

Live Flight TrackerFlight Track Log ✈ N2164L ✈ 30-May-2013 ✈ KRIW - KCPR

Flight Track Log - Related Links

Times and Time Zones

All times are in EDT time to prevent confusion due to time zone crossing. See the N2164L flight status page for this flight to view local times or setup timezone preferences in your user account.

Time Position Orientation Groundspeed Altitude Reporting Facility
EDT Latitude Longitude Course Direction KTS MPH feet Rate Location/Type
04:16PM 42.9964 -108.2878 99° East 202 232 11,000  Level Salt Lake Center
04:17PM 42.9917 -108.2053 94° East 218 251 11,000  Level Salt Lake Center
04:18PM 42.9894 -108.1253 92° East 221 254 11,000  Level Salt Lake Center
04:19PM 42.9853 -108.0386 94° East 212 244 11,000  Level Salt Lake Center
04:20PM 42.9983 -107.5610 96° East  Level Estimated
04:20PM 42.9828 -107.9722 93° East 195 224 11,100  Level Salt Lake Center
04:21PM 42.9882 -107.4718 99° East  Level FlightAware Approximate
04:21PM 42.9786 -107.8867 94° East 198 228 11,100  Level Salt Lake Center
04:22PM 42.9750 -107.8100 94° East 208 239 11,100  Level Salt Lake Center
04:23PM 42.9558 -107.7219 107° East 216 249 11,100  Level Salt Lake Center
04:24PM 42.9356 -107.6572 113° Southeast 207 238 11,100  Level Salt Lake Center
04:25PM 42.9097 -107.5764 114° Southeast 208 239 11,100  Level Salt Lake Center
04:26PM 42.8967 -107.5103 105° East 199 229 11,100  Level Salt Lake Center
04:27PM 42.9000 -107.4228 87° East 208 239 11,100  Level Salt Lake Center
04:28PM 42.9014 -107.3467 89° East 204 235 11,100  Level Salt Lake Center
04:29PM 42.9033 -107.2772 88° East 198 228 11,100  Level Salt Lake Center
04:30PM 42.9042 -107.1925 89° East 198 228 11,100  Level Salt Lake Center
04:31PM 42.9042 -107.1156 90° East 202 232 11,100  Level Salt Lake Center
04:32PM 42.8969 -107.0281 96° East 209 241 11,100  Level Salt Lake Center
04:34PM 42.8608 -106.8797 108° East 186 214 11,100  Level Salt Lake Center
04:35PM 42.8419 -106.8053 109° East 210 242 11,100  Level Denver Center
04:36PM 42.8228 -106.7258 108° East 209 241 11,100  Level Denver Center
04:37PM 42.7983 -106.6383 111° Southeast 210 242 11,100  Level Denver Center
04:38PM 42.7753 -106.5536 110° East 212 244 11,100  Level Denver Center
04:39PM 42.7550 -106.4808 111° Southeast 214 246 11,100  Level Denver Center
04:40PM 42.7806 -106.4075 65° Northeast 217 250 11,100  Level Denver Center
04:41PM 42.8161 -106.3525 49° Northeast 208 239 11,100  Level Denver Center
04:42PM 42.8486 -106.2992 50° Northeast 199 229 11,100  Level Denver Center
04:43PM 42.8867 -106.2378 50° Northeast 194 223 11,100  Level Denver Center
04:44PM 42.9178 -106.1803 54° Northeast 196 226 11,100  Level Denver Center
04:45PM 42.9383 -106.0986 71° East 203 234 11,100  Level Denver Center
04:46PM 42.9558 -106.0278 71° East 204 235 11,100 -240 Level Denver Center
04:48PM 42.9111 -105.9981 154° Southeast 202 232 10,700 -480 Descending Denver Center
04:49PM 42.9097 -106.0478 268° West 160 184 10,100 -720 Descending Denver Center
04:50PM 42.9156 -106.1142 277° West 144 166 9,200 -720 Descending Denver Center
04:51PM 42.9131 -106.1656 266° West 141 162 8,700 -540 Descending Denver Center
04:52PM 42.9114 -106.2219 268° West 136 157 8,100 -360 Descending Denver Center
04:53PM 42.9111 -106.2686 270° West 132 152 8,000 -300 Descending Denver Center
04:54PM 42.9097 -106.3022 267° West 123 142 7,500 -600 Descending Denver Center
04:55PM 42.9106 -106.3578 271° West 116 133 6,800 -480 Descending Denver Center
04:56PM 42.9100 -106.3989 269° West 117 135 6,600 -240 Descending Denver Center
04:58PM 42.9000 -106.4500 North  Level FlightAware Approximate